Currently 52°F in San Jacinto, California, USA
52°F
52°F / 45°F
2 mph SE
0.56"
Wednesday, April 8, 2020 5:42 PM PDT

San Jacinto, California Weather Summary
Last 36 Hours

Temperature Winds Hourly Humidity Dewpoint
Time Report Norm Report Norm Max Gusts Precip. Rpt. Norm Rpt. Norm Pressure
1Wed 05:42 PM  52.0°F  69°F  2 mph SE  5 mph  5 mph  0.00"  72%  41%  43°F  44°F  30.06"
2Wed 05:36 PM  52.2°F  70°F  1 mph S  6 mph  5 mph  ----  73%  41%  43°F  44°F  30.06"
Wed 05:00 PM  49.6°F  71°F  1 mph NW  5 mph  11 mph  0.01"  79%  38%  43°F  43°F  30.05"
Wed 04:00 PM  49.1°F  72°F  6 mph NW  5 mph  11 mph  0.01"  84%  36%  44°F  42°F  30.05"
Wed 03:00 PM  48.2°F  71°F  calm  4 mph  7 mph  0.07"  85%  36%  44°F  42°F  30.06"
Wed 02:00 PM  47.8°F  71°F  2 mph SE  3 mph  11 mph  0.04"  86%  37%  44°F  42°F  30.06"
3Wed 01:18 PM  45.3°F  70°F  8 mph N  3 mph  9 mph  ----  89%  38%  42°F  42°F  30.06"
Wed 01:00 PM  46.4°F  69°F  calm  3 mph  11 mph  0.07"  89%  39%  43°F  42°F  30.07"
Wed 12:00 PM  49.8°F  67°F  3 mph NW  3 mph  8 mph  0.00"  83%  42%  45°F  43°F  30.04"
Wed 11:00 AM  46.8°F  65°F  3 mph N  2 mph  11 mph  0.08"  91%  47%  44°F  43°F  30.04"
Wed 10:00 AM  47.8°F  61°F  4 mph SE  1 mph  9 mph  0.03"  89%  56%  45°F  45°F  30.03"
Wed 09:00 AM  46.9°F  57°F  calm  1 mph  6 mph  0.02"  88%  66%  43°F  45°F  30.01"
Wed 08:00 AM  46.8°F  53°F  calm  1 mph  11 mph  0.01"  89%  73%  44°F  44°F  30.00"
Wed 07:00 AM  46.4°F  49°F  9 mph E  calm  11 mph  0.01"  90%  79%  44°F  43°F  29.97"
Wed 06:00 AM  47.3°F  50°F  3 mph E  calm  8 mph  0.05"  93%  79%  45°F  43°F  29.95"
Wed 05:00 AM  47.7°F  50°F  calm  calm  7 mph  0.04"  93%  78%  46°F  43°F  29.98"
Wed 04:00 AM  48.4°F  51°F  calm  calm  1 mph  0.08"  92%  76%  46°F  43°F  29.97"
Wed 03:00 AM  48.7°F  52°F  calm  calm  none  0.00"  91%  75%  46°F  44°F  29.99"
Wed 02:00 AM  48.9°F  53°F  calm  1 mph  3 mph  0.03"  89%  73%  46°F  44°F  30.02"
Wed 01:00 AM  49.6°F  54°F  calm  1 mph  6 mph  0.00"  88%  71%  46°F  44°F  30.04"
Wed 12:00 AM  49.8°F  55°F  calm  1 mph  1 mph  0.00"  86%  70%  46°F  45°F  30.05"
Tue 11:00 PM  50.5°F  56°F  calm  1 mph  11 mph  0.00"  82%  68%  45°F  45°F  30.05"
Tue 10:00 PM  51.6°F  58°F  calm  1 mph  10 mph  0.00"  82%  66%  46°F  46°F  30.06"
Tue 09:00 PM  52.0°F  59°F  2 mph SW  1 mph  16 mph  0.01"  83%  62%  47°F  46°F  30.04"
Tue 08:00 PM  53.6°F  61°F  7 mph SE  2 mph  11 mph  0.00"  83%  57%  48°F  45°F  30.00"
Tue 07:00 PM  53.1°F  65°F  3 mph E  3 mph  17 mph  0.11"  90%  50%  50°F  45°F  29.99"
Tue 06:00 PM  55.6°F  68°F  calm  5 mph  6 mph  0.13"  88%  44%  52°F  44°F  29.98"
Tue 05:00 PM  55.8°F  70°F  calm  5 mph  7 mph  0.00"  87%  39%  52°F  43°F  29.97"
Tue 04:00 PM  55.0°F  71°F  calm  5 mph  3 mph  0.10"  89%  37%  52°F  42°F  30.00"
Tue 03:00 PM  55.9°F  71°F  calm  4 mph  9 mph  0.10"  84%  37%  51°F  42°F  30.00"
Tue 02:00 PM  60.4°F  70°F  3 mph E  4 mph  6 mph  0.00"  73%  37%  51°F  42°F  30.02"
Tue 01:00 PM  59.4°F  69°F  1 mph SW  4 mph  7 mph  0.00"  72%  40%  50°F  42°F  30.05"
Tue 12:00 PM  55.9°F  67°F  calm  3 mph  8 mph  0.05"  82%  43%  50°F  43°F  30.08"
Tue 11:00 AM  57.7°F  64°F  1 mph W  2 mph  5 mph  0.00"  75%  48%  50°F  44°F  30.08"
Tue 10:00 AM  54.9°F  61°F  calm  1 mph  5 mph  0.00"  80%  57%  49°F  45°F  30.08"
Tue 09:00 AM  50.7°F  56°F  2 mph W  1 mph  3 mph  0.00"  92%  67%  48°F  45°F  30.09"
Tue 08:00 AM  49.5°F  52°F  calm  1 mph  1 mph  0.00"  94%  74%  48°F  44°F  30.08"
Tue 07:00 AM  48.6°F  49°F  calm  calm  7 mph  0.00"  93%  80%  47°F  43°F  30.06"
Tue 06:00 AM  48.4°F  50°F  calm  calm  7 mph  0.00"  94%  79%  47°F  43°F  30.04"

  1. Current weather data. No green row appears if the current weather data is also the high or low for the current day.
  2. High temperature for the current day.
  3. Low temperature for the current day.

The San Jacinto, California weather pages are a service of WeatherCurrents. San Jacinto is located in the heart of the San Jacinto Valley, near Hemet, the Soboba Casino, and at the foot of the San Jacinto Mountains.
Copyright ©2020  WeatherCurrents. All rights reserved. - Submit questions and comments - Privacy Policy

This page automatically refreshes every 10 minutes.